Time;durP1;ratioP1;P1;durP2;ratioP2;P2;SDS_P1;SDS_P2;PMS_P1;PMS_P2;Temp;Humidity;BMP_temperature;BMP_pressure;BME280_temperature;BME280_humidity;BME280_pressure;Samples;Min_cycle;Max_cycle;Signal;HPM_P1;HPM_P2
2023/06/22 00:02:10;;;;;;;11.00;7.65;;;26.10;72.30;;;;;;7680152;22;80765;-70
2023/06/22 00:05:11;;;;;;;9.60;7.10;;;26.10;72.40;;;;;;7679650;22;80317;-66
2023/06/22 00:08:11;;;;;;;9.57;7.45;;;26.10;72.40;;;;;;7678537;22;79906;-67
2023/06/22 00:11:12;;;;;;;11.25;7.22;;;26.10;72.10;;;;;;7678941;22;80422;-68
2023/06/22 00:14:12;;;;;;;11.90;7.32;;;26.20;71.90;;;;;;7678932;22;80500;-69
2023/06/22 00:17:13;;;;;;;10.25;7.07;;;26.10;71.50;;;;;;7651709;22;83471;-68
2023/06/22 00:20:14;;;;;;;11.05;7.88;;;26.20;71.50;;;;;;7678673;22;80871;-68
2023/06/22 00:23:15;;;;;;;10.90;6.57;;;26.20;71.30;;;;;;7678841;22;80539;-69
2023/06/22 00:26:17;;;;;;;8.93;7.40;;;26.20;71.20;;;;;;7680527;22;80166;-73
2023/06/22 00:29:18;;;;;;;11.95;7.85;;;26.20;71.20;;;;;;7678737;22;81131;-72
2023/06/22 00:32:19;;;;;;;11.07;7.40;;;26.20;71.30;;;;;;7693585;22;80587;-68
2023/06/22 00:35:21;;;;;;;12.93;7.18;;;26.20;71.40;;;;;;7649923;22;83157;-72
2023/06/22 00:38:22;;;;;;;15.07;6.60;;;26.20;71.60;;;;;;7651945;22;83305;-73
2023/06/22 00:41:22;;;;;;;12.90;7.65;;;26.20;71.50;;;;;;7651465;22;81268;-73
2023/06/22 00:44:23;;;;;;;10.57;7.40;;;26.20;71.60;;;;;;7627575;22;81336;-73
2023/06/22 00:47:25;;;;;;;13.93;7.80;;;26.10;71.90;;;;;;7679831;22;80839;-72
2023/06/22 00:50:25;;;;;;;16.42;8.63;;;25.60;74.30;;;;;;7679652;22;80422;-74
2023/06/22 00:53:26;;;;;;;11.07;8.27;;;25.10;76.60;;;;;;7682434;22;80913;-73
2023/06/22 00:56:29;;;;;;;12.07;8.35;;;25.10;77.70;;;;;;7680087;22;80780;-74
2023/06/22 00:59:30;;;;;;;15.35;8.55;;;25.10;77.30;;;;;;7679314;22;80550;-74
2023/06/22 01:02:30;;;;;;;14.10;8.20;;;24.60;79.80;;;;;;7679064;22;80315;-72
2023/06/22 01:05:32;;;;;;;14.00;7.60;;;24.50;81.20;;;;;;7650069;22;83034;-72
2023/06/22 01:08:32;;;;;;;12.45;8.18;;;24.50;81.50;;;;;;7650789;22;80542;-58
2023/06/22 01:11:33;;;;;;;19.77;7.35;;;24.70;80.70;;;;;;7677920;22;80174;-57
2023/06/22 01:14:35;;;;;;;14.90;7.95;;;24.50;81.90;;;;;;7678195;22;80261;-58
2023/06/22 01:17:35;;;;;;;13.65;8.02;;;24.30;83.40;;;;;;7677875;22;80666;-57
2023/06/22 01:20:36;;;;;;;15.13;7.68;;;24.30;83.90;;;;;;7678297;22;80443;-59
2023/06/22 01:23:36;;;;;;;10.73;7.32;;;24.10;84.80;;;;;;7679123;22;80461;-57
2023/06/22 01:26:37;;;;;;;10.70;7.35;;;24.00;85.60;;;;;;7651740;22;83250;-58
2023/06/22 01:29:38;;;;;;;10.80;7.40;;;24.00;85.70;;;;;;7677811;22;80837;-58
2023/06/22 01:32:39;;;;;;;14.38;7.47;;;24.20;85.00;;;;;;7677784;22;82139;-60
2023/06/22 01:35:39;;;;;;;13.40;7.40;;;24.40;83.30;;;;;;7678139;22;80817;-59
2023/06/22 01:38:40;;;;;;;14.75;7.57;;;24.40;83.00;;;;;;7677892;22;80539;-60
2023/06/22 01:41:41;;;;;;;13.70;7.57;;;24.10;84.10;;;;;;7677161;22;80485;-59
2023/06/22 01:44:42;;;;;;;9.68;6.50;;;24.30;83.60;;;;;;7652502;22;83590;-73
2023/06/22 01:47:43;;;;;;;12.00;7.57;;;24.60;82.20;;;;;;7679133;22;80265;-70
2023/06/22 01:50:44;;;;;;;12.48;7.30;;;24.90;80.40;;;;;;7700823;22;87005;-67
2023/06/22 01:53:47;;;;;;;13.57;6.88;;;25.10;79.40;;;;;;7651892;22;83022;-67
2023/06/22 01:56:48;;;;;;;13.07;7.95;;;25.20;78.60;;;;;;7678437;22;80997;-69
2023/06/22 01:59:48;;;;;;;9.00;7.13;;;25.20;78.20;;;;;;7678113;22;80363;-74
2023/06/22 02:02:49;;;;;;;15.60;7.60;;;25.20;78.10;;;;;;7651496;22;83023;-71
2023/06/22 02:05:49;;;;;;;10.00;7.10;;;25.20;78.40;;;;;;7683136;22;81339;-68
2023/06/22 02:08:50;;;;;;;12.32;6.80;;;25.10;78.70;;;;;;7653600;22;81641;-71
2023/06/22 02:11:53;;;;;;;11.38;7.50;;;25.10;78.50;;;;;;7679992;22;80734;-70
2023/06/22 02:14:54;;;;;;;10.63;8.15;;;25.20;78.30;;;;;;7680502;22;81194;-70
2023/06/22 02:17:54;;;;;;;16.38;7.13;;;25.30;77.70;;;;;;7653828;22;80943;-69
2023/06/22 02:20:56;;;;;;;10.68;7.10;;;25.30;77.50;;;;;;7652045;22;82120;-63
2023/06/22 02:23:57;;;;;;;11.95;7.72;;;25.30;77.10;;;;;;7678521;22;80372;-62
2023/06/22 02:26:57;;;;;;;10.60;6.78;;;25.40;76.90;;;;;;7650705;22;83426;-62
2023/06/22 02:29:58;;;;;;;10.38;6.80;;;25.40;76.60;;;;;;7677342;22;81535;-61
2023/06/22 02:32:58;;;;;;;9.77;6.40;;;25.50;76.30;;;;;;7676490;22;80853;-61
2023/06/22 02:35:59;;;;;;;10.98;7.47;;;25.50;76.20;;;;;;7649139;22;82465;-61
2023/06/22 02:39:01;;;;;;;10.52;6.75;;;25.50;76.30;;;;;;7676680;22;82641;-61
2023/06/22 02:42:01;;;;;;;12.70;6.90;;;25.50;76.00;;;;;;7678052;22;80373;-61
2023/06/22 02:45:02;;;;;;;8.45;6.40;;;25.60;75.90;;;;;;7650162;22;81405;-61
2023/06/22 02:48:02;;;;;;;14.95;6.07;;;25.50;76.00;;;;;;7678672;22;80123;-62
2023/06/22 02:51:03;;;;;;;14.02;6.82;;;25.60;75.70;;;;;;7677507;22;80572;-61
2023/06/22 02:54:04;;;;;;;11.90;6.82;;;25.60;75.50;;;;;;7649522;22;81588;-61
2023/06/22 02:57:04;;;;;;;8.55;6.07;;;25.30;76.00;;;;;;7677638;22;81929;-62
2023/06/22 03:00:16;;;;;;;11.43;6.85;;;25.40;76.10;;;;;;7649509;22;82439;-63
2023/06/22 03:03:17;;;;;;;11.00;6.35;;;25.50;75.80;;;;;;7649968;22;82654;-64
2023/06/22 03:06:23;;;;;;;8.75;6.10;;;25.50;75.80;;;;;;7676300;22;80931;-64
2023/06/22 03:09:23;;;;;;;10.80;6.53;;;25.60;75.50;;;;;;7650439;22;83325;-65
2023/06/22 03:12:24;;;;;;;10.38;6.28;;;25.70;75.00;;;;;;7648483;22;82974;-65
2023/06/22 03:15:29;;;;;;;9.30;6.40;;;25.70;74.80;;;;;;7649116;22;83648;-65
2023/06/22 03:18:30;;;;;;;12.25;6.50;;;25.70;74.60;;;;;;7664644;22;82096;-64
2023/06/22 03:21:31;;;;;;;11.77;7.15;;;25.60;74.60;;;;;;7676862;22;81717;-62
2023/06/22 03:24:34;;;;;;;10.20;7.13;;;25.50;75.10;;;;;;7653844;22;81214;-59
2023/06/22 03:27:35;;;;;;;11.70;7.18;;;25.00;77.10;;;;;;7624347;22;83447;-60
2023/06/22 03:30:35;;;;;;;15.77;7.85;;;24.90;77.70;;;;;;7649800;22;83449;-61
2023/06/22 03:33:36;;;;;;;13.00;7.40;;;24.70;78.20;;;;;;7649793;22;81000;-63
2023/06/22 03:36:37;;;;;;;10.60;6.82;;;24.60;78.80;;;;;;7676661;22;80306;-65
2023/06/22 03:39:37;;;;;;;12.35;7.18;;;24.70;78.20;;;;;;7649619;22;83687;-64
2023/06/22 03:42:38;;;;;;;16.02;6.50;;;24.80;77.50;;;;;;7675396;22;80486;-63
2023/06/22 03:45:40;;;;;;;13.25;7.22;;;25.00;77.00;;;;;;7650643;22;82312;-64
2023/06/22 03:48:40;;;;;;;9.73;6.10;;;25.10;76.00;;;;;;7675515;22;80409;-64
2023/06/22 03:51:41;;;;;;;11.00;7.22;;;25.10;75.50;;;;;;7649134;22;81808;-69
2023/06/22 03:54:41;;;;;;;11.80;7.70;;;24.90;76.50;;;;;;7677573;22;81299;-69
2023/06/22 03:57:42;;;;;;;12.32;7.20;;;24.90;76.50;;;;;;7675734;22;80198;-69
2023/06/22 04:00:43;;;;;;;15.05;7.60;;;24.80;77.20;;;;;;7675571;22;80734;-67
2023/06/22 04:03:43;;;;;;;10.02;6.47;;;24.80;77.80;;;;;;7676491;22;80803;-69
2023/06/22 04:06:44;;;;;;;9.55;6.70;;;24.80;77.70;;;;;;7675916;22;80823;-67
2023/06/22 04:09:44;;;;;;;10.70;6.25;;;25.10;76.80;;;;;;7676180;22;80221;-69
2023/06/22 04:12:45;;;;;;;14.30;6.85;;;25.00;76.30;;;;;;7674057;22;81075;-68
2023/06/22 04:15:45;;;;;;;13.27;7.53;;;25.00;76.10;;;;;;7675232;22;80872;-65
2023/06/22 04:18:46;;;;;;;10.98;7.05;;;24.90;76.50;;;;;;7676635;22;80236;-67
2023/06/22 04:21:48;;;;;;;12.45;7.20;;;25.00;76.50;;;;;;7676545;22;80406;-68
2023/06/22 04:24:52;;;;;;;10.82;6.95;;;24.80;76.50;;;;;;7676064;22;80747;-66
2023/06/22 04:27:53;;;;;;;14.43;7.07;;;24.90;76.80;;;;;;7676946;22;80850;-71
2023/06/22 04:30:58;;;;;;;10.95;7.00;;;24.80;77.20;;;;;;7676627;22;81259;-71
2023/06/22 04:34:06;;;;;;;10.52;6.70;;;24.80;77.60;;;;;;7676259;22;80330;-64
2023/06/22 04:37:06;;;;;;;14.40;7.03;;;24.90;76.70;;;;;;7674847;22;80216;-67
2023/06/22 04:40:07;;;;;;;14.73;7.32;;;25.10;76.30;;;;;;7677079;22;81291;-67
2023/06/22 04:43:09;;;;;;;14.43;7.00;;;25.20;76.10;;;;;;7683299;22;80262;-67
2023/06/22 04:46:10;;;;;;;14.70;6.35;;;25.20;76.10;;;;;;7684314;22;80023;-65
2023/06/22 04:49:11;;;;;;;11.80;6.13;;;25.30;75.80;;;;;;7678807;22;80764;-64
2023/06/22 04:52:11;;;;;;;19.88;6.60;;;25.40;75.30;;;;;;7675759;22;80265;-66
2023/06/22 04:55:12;;;;;;;9.40;5.90;;;25.40;75.30;;;;;;7675045;22;80307;-67
2023/06/22 04:58:12;;;;;;;15.82;7.32;;;25.50;75.10;;;;;;7676432;22;80360;-67
2023/06/22 05:01:13;;;;;;;13.32;6.60;;;25.50;74.90;;;;;;7615295;22;81242;-67
2023/06/22 05:04:13;;;;;;;16.15;7.30;;;25.60;74.70;;;;;;7575907;22;81301;-67
2023/06/22 05:07:14;;;;;;;15.55;6.65;;;25.50;74.90;;;;;;7659792;22;87339;-64
2023/06/22 05:10:14;;;;;;;12.60;6.75;;;25.50;74.70;;;;;;7660617;22;81310;-65
2023/06/22 05:13:15;;;;;;;11.45;6.72;;;25.60;74.60;;;;;;7660882;22;81365;-68
2023/06/22 05:16:16;;;;;;;10.23;5.72;;;25.50;74.70;;;;;;7661216;22;81390;-65
2023/06/22 05:19:16;;;;;;;10.57;6.43;;;25.50;74.90;;;;;;7671885;22;80968;-65
2023/06/22 05:22:16;;;;;;;14.43;6.45;;;25.50;75.10;;;;;;7675401;22;80793;-67
2023/06/22 05:25:17;;;;;;;12.35;6.63;;;25.40;75.50;;;;;;7674679;22;80778;-70
2023/06/22 05:28:22;;;;;;;13.02;6.90;;;25.50;75.30;;;;;;7672734;22;80928;-70
2023/06/22 05:31:23;;;;;;;10.82;6.63;;;25.50;75.20;;;;;;7675726;22;81372;-72
2023/06/22 05:34:23;;;;;;;12.15;7.05;;;25.40;76.00;;;;;;7676859;22;80331;-72
2023/06/22 05:37:24;;;;;;;7.75;6.30;;;25.30;76.70;;;;;;7674605;22;82059;-73
2023/06/22 05:40:24;;;;;;;12.80;7.00;;;25.30;76.50;;;;;;7677932;22;80586;-71
2023/06/22 05:43:25;;;;;;;18.15;7.10;;;25.50;76.00;;;;;;7678293;22;80613;-72
2023/06/22 05:46:25;;;;;;;15.23;6.95;;;25.60;75.60;;;;;;7676104;22;81044;-72
2023/06/22 05:49:32;;;;;;;11.00;7.20;;;25.70;75.20;;;;;;7675529;22;80984;-73
2023/06/22 05:52:32;;;;;;;15.60;7.35;;;25.80;75.10;;;;;;7646147;22;80673;-71
2023/06/22 05:55:33;;;;;;;18.48;8.32;;;25.80;74.90;;;;;;7676308;22;80667;-71
2023/06/22 05:58:34;;;;;;;12.32;6.65;;;25.80;75.10;;;;;;7674781;22;80940;-70
2023/06/22 06:01:35;;;;;;;12.95;7.65;;;25.90;74.70;;;;;;7676741;22;79914;-67
2023/06/22 06:04:36;;;;;;;12.40;6.90;;;25.80;75.20;;;;;;7649494;22;82430;-65
2023/06/22 06:07:37;;;;;;;12.02;6.72;;;25.90;75.10;;;;;;7675602;22;81012;-66
2023/06/22 06:10:37;;;;;;;18.00;8.25;;;25.90;74.80;;;;;;7677167;22;80811;-66
2023/06/22 06:13:38;;;;;;;14.15;7.47;;;25.70;76.00;;;;;;7674784;22;81027;-66
2023/06/22 06:16:38;;;;;;;17.17;8.32;;;25.60;76.60;;;;;;7675682;22;81257;-65
2023/06/22 06:19:39;;;;;;;16.50;8.73;;;25.70;76.40;;;;;;7647531;22;86760;-67
2023/06/22 06:22:39;;;;;;;15.05;8.20;;;25.80;76.10;;;;;;7674373;22;80894;-66
2023/06/22 06:25:40;;;;;;;14.38;8.50;;;25.70;76.90;;;;;;7674580;22;80793;-67
2023/06/22 06:28:40;;;;;;;17.77;8.70;;;25.70;76.80;;;;;;7674379;22;80918;-67
2023/06/22 06:31:41;;;;;;;15.55;8.98;;;25.60;77.30;;;;;;7675034;22;80655;-66
2023/06/22 06:34:42;;;;;;;13.30;8.38;;;25.60;77.30;;;;;;7677416;22;80401;-66
2023/06/22 06:37:43;;;;;;;12.98;8.73;;;25.70;76.60;;;;;;7676938;22;80940;-66
2023/06/22 06:40:45;;;;;;;19.63;10.88;;;25.90;76.80;;;;;;7676985;22;81376;-66
2023/06/22 06:43:45;;;;;;;16.23;9.55;;;25.70;77.10;;;;;;7671915;22;83789;-64
2023/06/22 06:46:46;;;;;;;15.85;9.27;;;25.90;76.80;;;;;;7676050;22;82738;-65
2023/06/22 06:49:46;;;;;;;22.05;10.48;;;26.00;76.30;;;;;;7667407;22;80299;-66
2023/06/22 06:52:47;;;;;;;17.55;10.48;;;26.00;77.10;;;;;;7666681;22;82961;-66
2023/06/22 06:55:48;;;;;;;16.02;10.05;;;25.80;77.40;;;;;;7667944;22;83407;-71
2023/06/22 06:58:48;;;;;;;17.40;10.02;;;25.90;76.70;;;;;;7670460;22;83329;-69
2023/06/22 07:01:49;;;;;;;14.85;10.10;;;26.10;76.20;;;;;;7669000;22;83497;-70
2023/06/22 07:04:49;;;;;;;16.38;10.80;;;26.10;76.00;;;;;;7669356;22;83348;-69
2023/06/22 07:07:50;;;;;;;25.48;10.48;;;26.10;76.30;;;;;;7669138;22;82935;-65
2023/06/22 07:10:50;;;;;;;22.33;9.73;;;26.10;76.30;;;;;;7666933;22;82974;-67
2023/06/22 07:13:51;;;;;;;17.23;10.65;;;26.20;76.00;;;;;;7674023;22;83423;-59
2023/06/22 07:16:51;;;;;;;18.58;11.15;;;26.20;76.60;;;;;;7669625;22;82881;-60
2023/06/22 07:19:52;;;;;;;14.88;10.70;;;26.20;76.90;;;;;;7669965;22;83177;-60
2023/06/22 07:22:53;;;;;;;18.85;12.00;;;26.30;76.10;;;;;;7669863;22;83258;-59
2023/06/22 07:25:53;;;;;;;21.88;11.55;;;26.20;76.10;;;;;;7663049;22;82976;-60
2023/06/22 07:28:54;;;;;;;18.38;10.98;;;26.30;75.80;;;;;;7668211;22;83065;-58
2023/06/22 07:31:56;;;;;;;18.25;12.70;;;26.40;75.30;;;;;;7670269;22;83104;-71
2023/06/22 07:34:56;;;;;;;22.73;12.45;;;26.50;75.20;;;;;;7666156;22;83089;-68
2023/06/22 07:37:57;;;;;;;20.58;12.48;;;26.50;75.20;;;;;;7662758;22;84306;-67
2023/06/22 07:40:57;;;;;;;21.52;13.88;;;26.50;75.80;;;;;;7664183;22;84423;-69
2023/06/22 07:43:58;;;;;;;20.58;13.77;;;26.60;75.00;;;;;;7673355;22;83009;-66
2023/06/22 07:46:58;;;;;;;26.00;15.27;;;26.60;75.20;;;;;;7674991;22;83188;-67
2023/06/22 07:50:01;;;;;;;26.55;16.23;;;26.60;75.30;;;;;;7675250;22;83209;-69
2023/06/22 07:53:01;;;;;;;22.13;15.40;;;26.70;75.60;;;;;;7675609;22;83229;-63
2023/06/22 07:56:06;;;;;;;25.42;16.38;;;26.70;75.50;;;;;;7671581;22;83496;-62
2023/06/22 07:59:07;;;;;;;23.02;16.08;;;26.70;75.20;;;;;;7675549;22;83845;-62
2023/06/22 08:02:09;;;;;;;26.85;18.15;;;26.80;75.10;;;;;;7649070;22;85640;-61
2023/06/22 08:05:09;;;;;;;28.95;17.83;;;26.80;74.90;;;;;;7675677;22;82922;-61
2023/06/22 08:08:10;;;;;;;26.63;19.13;;;26.80;74.90;;;;;;7675360;22;83196;-61
2023/06/22 08:11:10;;;;;;;31.08;20.55;;;26.90;74.80;;;;;;7672076;22;84049;-58
2023/06/22 08:14:11;;;;;;;29.15;20.60;;;26.90;74.70;;;;;;7673765;22;83252;-58
2023/06/22 08:17:11;;;;;;;28.08;20.15;;;26.90;74.50;;;;;;7676283;22;83145;-59
2023/06/22 08:20:12;;;;;;;36.25;20.63;;;26.80;74.40;;;;;;7677618;22;82982;-59
2023/06/22 08:23:13;;;;;;;29.13;21.40;;;26.80;74.70;;;;;;7675595;22;84417;-58
2023/06/22 08:26:14;;;;;;;33.53;20.52;;;26.80;74.90;;;;;;7674919;22;84713;-58
2023/06/22 08:29:15;;;;;;;32.30;22.42;;;26.80;74.80;;;;;;7677219;22;83853;-68
2023/06/22 08:32:15;;;;;;;32.55;22.88;;;26.80;74.50;;;;;;7649889;22;83673;-65
2023/06/22 08:35:16;;;;;;;29.60;21.88;;;26.90;73.80;;;;;;7676295;22;82934;-68
2023/06/22 08:38:18;;;;;;;26.20;21.10;;;26.80;74.10;;;;;;7673471;22;82789;-67
2023/06/22 08:41:19;;;;;;;23.83;20.17;;;26.80;72.70;;;;;;7676644;22;82927;-68
2023/06/22 08:44:19;;;;;;;22.77;18.77;;;26.80;71.50;;;;;;7677695;22;83110;-67
2023/06/22 08:47:21;;;;;;;21.45;17.63;;;26.90;71.70;;;;;;7674450;22;83823;-68
2023/06/22 08:50:21;;;;;;;19.13;16.42;;;26.80;70.90;;;;;;7675012;22;83336;-68
2023/06/22 08:53:22;;;;;;;23.35;17.58;;;26.90;70.40;;;;;;7670485;22;83317;-70
2023/06/22 08:56:22;;;;;;;26.55;17.67;;;26.80;69.90;;;;;;7677445;22;83928;-69
2023/06/22 08:59:23;;;;;;;21.10;18.23;;;26.80;69.80;;;;;;7648093;22;84669;-68
2023/06/22 09:02:23;;;;;;;22.02;16.75;;;26.80;69.70;;;;;;7677322;22;83468;-65
2023/06/22 09:05:25;;;;;;;22.77;17.77;;;26.90;69.70;;;;;;7674956;22;84115;-67
2023/06/22 09:08:25;;;;;;;22.08;16.48;;;26.90;69.80;;;;;;7673803;22;83464;-67
2023/06/22 09:11:26;;;;;;;19.38;16.80;;;26.90;69.70;;;;;;7649383;22;83244;-68
2023/06/22 09:14:26;;;;;;;22.40;18.25;;;26.90;69.30;;;;;;7676289;22;82781;-65
2023/06/22 09:17:27;;;;;;;27.05;17.50;;;26.90;69.40;;;;;;7676383;22;82591;-69
2023/06/22 09:20:27;;;;;;;20.05;16.90;;;27.00;69.40;;;;;;7673453;22;83506;-67
2023/06/22 09:23:28;;;;;;;31.60;18.63;;;27.00;69.70;;;;;;7672270;22;83518;-70
2023/06/22 09:26:29;;;;;;;23.20;18.15;;;27.00;70.10;;;;;;7646497;22;84017;-67
2023/06/22 09:29:33;;;;;;;19.23;17.17;;;27.00;70.20;;;;;;7676623;22;83002;-66
2023/06/22 09:32:33;;;;;;;21.95;18.20;;;27.00;70.30;;;;;;7676564;22;83049;-66
2023/06/22 09:35:34;;;;;;;24.17;16.80;;;27.00;70.10;;;;;;7672637;22;85285;-68
2023/06/22 09:38:34;;;;;;;28.10;17.88;;;27.10;70.20;;;;;;7644968;22;84480;-67
2023/06/22 09:41:35;;;;;;;22.70;17.35;;;27.10;70.10;;;;;;7676849;22;83547;-59
2023/06/22 09:44:35;;;;;;;30.17;18.60;;;27.10;70.00;;;;;;7642475;22;86415;-59
2023/06/22 09:47:36;;;;;;;22.33;16.42;;;27.00;70.10;;;;;;7669188;22;83366;-59
2023/06/22 09:50:37;;;;;;;18.67;15.88;;;27.10;70.10;;;;;;7672435;22;83016;-58
2023/06/22 09:53:38;;;;;;;23.55;16.38;;;27.10;69.90;;;;;;7672102;22;84160;-59
2023/06/22 09:56:38;;;;;;;20.38;15.32;;;27.10;69.80;;;;;;7673904;22;82924;-59
2023/06/22 09:59:42;;;;;;;21.05;15.40;;;27.10;69.40;;;;;;7676617;22;83068;-58
2023/06/22 10:02:42;;;;;;;22.77;15.95;;;27.10;69.00;;;;;;7675475;22;83240;-59
2023/06/22 10:05:43;;;;;;;21.33;15.63;;;27.10;68.90;;;;;;7669579;22;84337;-57
2023/06/22 10:08:43;;;;;;;26.98;15.55;;;27.10;68.90;;;;;;7675762;22;82869;-57
2023/06/22 10:11:44;;;;;;;18.30;13.32;;;27.10;68.80;;;;;;7673996;22;83552;-53
2023/06/22 10:14:44;;;;;;;28.45;15.80;;;27.10;69.10;;;;;;7676019;22;83592;-59
2023/06/22 10:17:45;;;;;;;17.58;15.10;;;27.20;68.80;;;;;;7676677;22;83269;-59
2023/06/22 10:20:45;;;;;;;20.55;14.90;;;27.20;68.60;;;;;;7670484;22;83101;-58
2023/06/22 10:23:46;;;;;;;19.30;14.70;;;27.20;68.50;;;;;;7675142;22;83899;-57
2023/06/22 10:26:46;;;;;;;20.92;14.73;;;27.20;68.50;;;;;;7675980;22;83174;-60
2023/06/22 10:29:47;;;;;;;22.08;14.20;;;27.20;68.50;;;;;;7674009;22;83371;-58
2023/06/22 10:32:47;;;;;;;24.90;14.32;;;27.20;68.50;;;;;;7673886;22;82797;-59
2023/06/22 10:35:48;;;;;;;17.98;13.15;;;27.20;68.50;;;;;;7665356;22;83575;-58
2023/06/22 10:38:49;;;;;;;15.73;13.20;;;27.20;68.60;;;;;;7671667;22;83037;-58
2023/06/22 10:41:49;;;;;;;15.77;13.30;;;27.20;68.60;;;;;;7674148;22;84184;-57
2023/06/22 10:44:50;;;;;;;20.15;12.90;;;27.30;68.50;;;;;;7676590;22;83227;-59
2023/06/22 10:47:50;;;;;;;17.25;13.82;;;27.30;68.50;;;;;;7676070;22;83001;-58
2023/06/22 10:50:51;;;;;;;21.52;13.73;;;27.30;68.40;;;;;;7669366;22;84903;-57
2023/06/22 10:53:51;;;;;;;15.57;13.10;;;27.40;68.50;;;;;;7674475;22;82904;-56
2023/06/22 10:56:52;;;;;;;14.98;12.18;;;27.30;68.80;;;;;;7676414;22;84396;-57
2023/06/22 10:59:52;;;;;;;18.05;13.25;;;27.40;68.80;;;;;;7676265;22;83408;-56
2023/06/22 11:02:53;;;;;;;16.73;13.13;;;27.40;68.10;;;;;;7672372;22;83772;-57
2023/06/22 11:05:53;;;;;;;13.93;11.15;;;27.40;68.20;;;;;;7674308;22;83239;-58
2023/06/22 11:08:54;;;;;;;22.42;12.48;;;27.40;67.90;;;;;;7673753;22;83031;-58
2023/06/22 11:11:54;;;;;;;15.23;12.18;;;27.40;68.40;;;;;;7674242;22;82965;-58
2023/06/22 11:14:57;;;;;;;20.65;11.90;;;27.50;68.20;;;;;;7673387;22;83350;-57
2023/06/22 11:17:57;;;;;;;15.63;11.10;;;27.40;67.60;;;;;;7670537;22;83425;-58
2023/06/22 11:20:58;;;;;;;14.88;10.90;;;27.40;67.40;;;;;;7673751;22;83066;-57
2023/06/22 11:23:58;;;;;;;21.70;12.07;;;27.40;67.60;;;;;;7671724;22;83086;-58
2023/06/22 11:26:59;;;;;;;18.17;11.65;;;27.40;67.70;;;;;;7675971;22;82910;-59
2023/06/22 11:29:59;;;;;;;15.18;10.15;;;27.50;67.80;;;;;;7675869;22;83109;-61
2023/06/22 11:33:00;;;;;;;16.75;11.52;;;27.50;67.10;;;;;;7672160;22;82588;-59
2023/06/22 11:36:00;;;;;;;13.27;11.73;;;27.50;67.20;;;;;;7674819;22;82829;-60
2023/06/22 11:39:01;;;;;;;17.42;13.68;;;27.50;67.20;;;;;;7670611;22;83332;-59
2023/06/22 11:42:01;;;;;;;15.80;12.85;;;27.50;67.10;;;;;;7674744;22;83246;-59
2023/06/22 11:45:02;;;;;;;19.58;12.40;;;27.60;66.80;;;;;;7674017;22;84053;-59
2023/06/22 11:48:02;;;;;;;13.65;11.80;;;27.60;66.70;;;;;;7666409;22;83912;-58
2023/06/22 11:51:03;;;;;;;13.63;11.27;;;27.70;66.60;;;;;;7672509;22;83259;-72
2023/06/22 11:54:04;;;;;;;11.68;9.95;;;27.70;66.30;;;;;;7677846;22;82840;-72
2023/06/22 11:57:04;;;;;;;17.15;11.52;;;27.70;66.30;;;;;;7681768;22;82683;-71
2023/06/22 12:00:38;;;;;;;12.48;10.60;;;27.70;66.30;;;;;;7676068;22;82925;-67
2023/06/22 12:03:31;;;;;;;;;;;27.70;66.10;;;;;;7669601;22;84165;-70
2023/06/22 12:06:32;;;;;;;14.02;9.60;;;27.70;65.80;;;;;;7688959;22;82739;-71
2023/06/22 12:09:32;;;;;;;14.23;10.20;;;27.70;65.80;;;;;;7677364;22;80514;-71
2023/06/22 12:12:33;;;;;;;11.88;10.45;;;27.70;65.70;;;;;;7670448;22;82849;-70
2023/06/22 12:15:33;;;;;;;11.48;9.77;;;27.70;65.60;;;;;;7668935;22;83795;-72
2023/06/22 12:18:34;;;;;;;15.18;10.57;;;27.70;65.80;;;;;;7678708;22;81727;-71
2023/06/22 12:21:34;;;;;;;16.85;10.93;;;27.70;65.70;;;;;;7673774;22;83373;-72
2023/06/22 12:24:35;;;;;;;11.10;9.35;;;27.70;65.40;;;;;;7676823;22;83064;-72
2023/06/22 12:27:35;;;;;;;12.55;10.43;;;27.70;65.70;;;;;;7682528;22;83268;-72
2023/06/22 12:30:36;;;;;;;10.27;9.20;;;27.70;65.50;;;;;;7674773;22;83660;-71
2023/06/22 12:33:36;;;;;;;11.80;9.88;;;27.70;65.30;;;;;;7681487;22;82619;-69
2023/06/22 12:36:37;;;;;;;13.57;9.02;;;27.70;65.40;;;;;;7679993;22;81388;-71
2023/06/22 12:39:38;;;;;;;14.57;8.93;;;27.70;65.30;;;;;;7680236;22;80486;-70
2023/06/22 12:42:38;;;;;;;12.35;9.00;;;27.70;65.30;;;;;;7679798;22;80336;-67
2023/06/22 12:45:39;;;;;;;16.52;9.70;;;27.70;65.50;;;;;;7677208;22;80887;-68
2023/06/22 12:48:42;;;;;;;13.05;9.23;;;27.70;65.50;;;;;;7654204;22;80328;-68
2023/06/22 12:51:42;;;;;;;24.55;10.68;;;27.70;65.60;;;;;;7652154;22;80468;-65
2023/06/22 12:54:43;;;;;;;15.55;10.10;;;27.70;66.40;;;;;;7674897;22;83618;-68
2023/06/22 12:57:43;;;;;;;14.35;9.75;;;27.70;66.50;;;;;;7669804;22;82904;-70
2023/06/22 13:00:44;;;;;;;13.38;9.77;;;27.70;66.70;;;;;;7672182;22;82595;-70
2023/06/22 13:03:44;;;;;;;12.70;9.70;;;27.70;66.10;;;;;;7676612;22;80746;-59
2023/06/22 13:06:47;;;;;;;10.90;9.25;;;27.70;66.10;;;;;;7672339;22;80250;-60
2023/06/22 13:09:51;;;;;;;13.13;10.68;;;27.80;66.80;;;;;;7676689;22;80338;-60
2023/06/22 13:12:54;;;;;;;25.98;16.15;;;27.70;65.80;;;;;;7672930;22;84250;-59
2023/06/22 13:15:55;;;;;;;18.45;15.90;;;27.70;65.30;;;;;;7672058;22;83013;-57
2023/06/22 13:18:55;;;;;;;25.75;20.17;;;27.70;65.60;;;;;;7675599;22;84180;-57
2023/06/22 13:21:56;;;;;;;24.65;20.35;;;27.70;65.60;;;;;;7674392;22;83460;-61
2023/06/22 13:24:56;;;;;;;26.58;21.77;;;27.70;65.60;;;;;;7676085;22;83334;-60
2023/06/22 13:27:57;;;;;;;26.83;17.13;;;27.70;65.80;;;;;;7669753;22;82959;-60
2023/06/22 13:30:57;;;;;;;16.58;12.65;;;27.70;65.50;;;;;;7674808;22;82928;-61
2023/06/22 13:33:58;;;;;;;15.02;11.65;;;27.70;65.00;;;;;;7674489;22;82891;-60
2023/06/22 13:36:58;;;;;;;12.93;11.18;;;27.70;64.90;;;;;;7674997;22;83067;-60
2023/06/22 13:39:59;;;;;;;13.35;10.82;;;27.70;64.90;;;;;;7667685;22;84724;-66
2023/06/22 13:43:00;;;;;;;21.52;11.13;;;27.70;65.00;;;;;;7667152;22;83700;-60
2023/06/22 13:46:01;;;;;;;16.83;10.63;;;27.70;65.30;;;;;;7651021;22;84926;-64
2023/06/22 13:49:01;;;;;;;9.70;8.68;;;27.70;65.60;;;;;;7666053;22;84095;-65
2023/06/22 13:52:03;;;;;;;17.92;9.45;;;27.70;65.60;;;;;;7672681;22;83226;-64
2023/06/22 13:55:04;;;;;;;16.42;9.02;;;27.80;65.40;;;;;;7674145;22;80293;-65
2023/06/22 13:58:05;;;;;;;11.95;9.25;;;27.70;64.80;;;;;;7680123;22;80950;-63
2023/06/22 14:01:05;;;;;;;15.15;8.80;;;27.80;64.90;;;;;;7622448;22;80905;-64
2023/06/22 14:04:06;;;;;;;82.35;43.63;;;27.80;64.40;;;;;;7681077;22;80508;-62
2023/06/22 14:07:07;;;;;;;72.00;43.45;;;27.80;64.80;;;;;;7675701;22;83755;-64
2023/06/22 14:10:07;;;;;;;195.48;102.50;;;27.80;64.70;;;;;;7647915;22;85692;-62
2023/06/22 14:13:08;;;;;;;363.35;180.55;;;27.80;64.80;;;;;;7669070;22;85837;-62
2023/06/22 14:16:08;;;;;;;434.67;213.65;;;27.80;65.00;;;;;;7670486;22;87646;-72
2023/06/22 14:19:09;;;;;;;489.35;242.43;;;27.80;65.00;;;;;;7645117;22;88603;-69
2023/06/22 14:22:10;;;;;;;380.80;180.57;;;27.90;64.90;;;;;;7672953;22;85572;-73
2023/06/22 14:25:10;;;;;;;247.05;117.32;;;27.90;65.00;;;;;;7672982;22;85406;-72
2023/06/22 14:28:11;;;;;;;142.55;72.38;;;27.90;64.90;;;;;;7667316;22;85742;-73
2023/06/22 14:31:11;;;;;;;125.57;55.78;;;27.90;64.80;;;;;;7674714;22;85134;-74
2023/06/22 14:34:12;;;;;;;81.63;39.20;;;27.90;65.20;;;;;;7677301;22;83608;-62
2023/06/22 14:37:15;;;;;;;42.15;20.90;;;27.90;65.00;;;;;;7674474;22;83019;-64
2023/06/22 14:40:15;;;;;;;36.65;20.15;;;27.90;65.30;;;;;;7647417;22;89523;-61
2023/06/22 14:43:16;;;;;;;27.77;17.35;;;27.90;64.80;;;;;;7671228;22;83332;-63
2023/06/22 14:46:16;;;;;;;17.58;11.07;;;27.90;65.30;;;;;;7674094;22;83230;-66
2023/06/22 14:49:17;;;;;;;19.13;10.43;;;27.90;64.70;;;;;;7672637;22;82978;-60
2023/06/22 14:52:17;;;;;;;14.65;10.07;;;27.90;64.90;;;;;;7671417;22;83346;-62
2023/06/22 14:55:18;;;;;;;13.13;9.82;;;27.80;64.90;;;;;;7671988;22;83191;-65
2023/06/22 14:58:19;;;;;;;12.00;8.82;;;27.80;64.60;;;;;;7677833;22;83008;-66
2023/06/22 15:01:19;;;;;;;16.17;9.50;;;27.80;64.60;;;;;;7678098;22;82478;-64
2023/06/22 15:04:20;;;;;;;12.95;9.65;;;27.80;64.20;;;;;;7677937;22;81538;-62
2023/06/22 15:07:20;;;;;;;13.02;9.35;;;27.80;64.10;;;;;;7650532;22;80384;-60
2023/06/22 15:10:21;;;;;;;19.95;8.88;;;27.70;63.90;;;;;;7651022;22;83578;-60
2023/06/22 15:13:22;;;;;;;10.70;9.43;;;27.70;63.70;;;;;;7677163;22;80193;-68
2023/06/22 15:16:23;;;;;;;17.98;9.75;;;27.70;65.30;;;;;;7677635;22;80624;-64
2023/06/22 15:19:23;;;;;;;13.52;8.98;;;27.80;65.80;;;;;;7678626;22;80773;-65
2023/06/22 15:22:24;;;;;;;12.40;9.73;;;27.70;66.20;;;;;;7676778;22;80616;-65
2023/06/22 15:25:24;;;;;;;21.55;13.20;;;27.70;65.80;;;;;;7677869;22;80660;-66